sensor_id;sensor_type;location;lat;lon;timestamp;temperature;humidity
11511;DHT22;5812;48.864;9.190;2023-03-13T00:01:26;7.20;1.00
11511;DHT22;5812;48.864;9.190;2023-03-13T00:03:52;7.40;1.00
11511;DHT22;5812;48.864;9.190;2023-03-13T00:06:20;7.40;1.00
11511;DHT22;5812;48.864;9.190;2023-03-13T00:08:45;7.40;1.00
11511;DHT22;5812;48.864;9.190;2023-03-13T00:11:13;7.40;1.00
11511;DHT22;5812;48.864;9.190;2023-03-13T00:13:40;7.50;1.00
11511;DHT22;5812;48.864;9.190;2023-03-13T00:16:08;7.70;1.00
11511;DHT22;5812;48.864;9.190;2023-03-13T00:18:34;7.60;1.00
11511;DHT22;5812;48.864;9.190;2023-03-13T00:21:05;7.60;1.00
11511;DHT22;5812;48.864;9.190;2023-03-13T00:23:32;7.60;1.00
11511;DHT22;5812;48.864;9.190;2023-03-13T00:26:00;7.70;1.00
11511;DHT22;5812;48.864;9.190;2023-03-13T00:28:27;7.70;1.00
11511;DHT22;5812;48.864;9.190;2023-03-13T00:31:02;7.80;1.00
11511;DHT22;5812;48.864;9.190;2023-03-13T00:33:28;7.80;1.00
11511;DHT22;5812;48.864;9.190;2023-03-13T00:35:58;7.80;1.00
11511;DHT22;5812;48.864;9.190;2023-03-13T00:38:23;7.80;1.00
11511;DHT22;5812;48.864;9.190;2023-03-13T00:40:49;7.80;1.00
11511;DHT22;5812;48.864;9.190;2023-03-13T00:43:14;7.80;1.00
11511;DHT22;5812;48.864;9.190;2023-03-13T00:45:40;7.80;1.00
11511;DHT22;5812;48.864;9.190;2023-03-13T00:48:05;7.80;1.00
11511;DHT22;5812;48.864;9.190;2023-03-13T00:50:31;7.70;1.00
11511;DHT22;5812;48.864;9.190;2023-03-13T00:52:56;7.70;1.00
11511;DHT22;5812;48.864;9.190;2023-03-13T00:55:22;7.70;1.00
11511;DHT22;5812;48.864;9.190;2023-03-13T00:57:48;7.70;1.00
11511;DHT22;5812;48.864;9.190;2023-03-13T01:00:13;7.70;1.00
11511;DHT22;5812;48.864;9.190;2023-03-13T01:02:41;7.80;1.00
11511;DHT22;5812;48.864;9.190;2023-03-13T01:05:07;7.80;1.00
11511;DHT22;5812;48.864;9.190;2023-03-13T01:07:33;7.70;1.00
11511;DHT22;5812;48.864;9.190;2023-03-13T01:09:59;7.60;1.00
11511;DHT22;5812;48.864;9.190;2023-03-13T01:12:24;7.70;1.00
11511;DHT22;5812;48.864;9.190;2023-03-13T01:14:50;7.80;1.00
11511;DHT22;5812;48.864;9.190;2023-03-13T01:17:15;7.80;1.00
11511;DHT22;5812;48.864;9.190;2023-03-13T01:19:41;7.80;1.00
11511;DHT22;5812;48.864;9.190;2023-03-13T01:22:06;7.80;1.00
11511;DHT22;5812;48.864;9.190;2023-03-13T01:24:35;7.80;1.00
11511;DHT22;5812;48.864;9.190;2023-03-13T01:27:01;7.70;1.00
11511;DHT22;5812;48.864;9.190;2023-03-13T01:29:26;7.70;1.00
11511;DHT22;5812;48.864;9.190;2023-03-13T01:31:52;7.70;1.00
11511;DHT22;5812;48.864;9.190;2023-03-13T01:34:18;7.70;1.00
11511;DHT22;5812;48.864;9.190;2023-03-13T01:36:43;7.70;1.00
11511;DHT22;5812;48.864;9.190;2023-03-13T01:39:09;7.70;1.00
11511;DHT22;5812;48.864;9.190;2023-03-13T01:41:36;7.70;1.00
11511;DHT22;5812;48.864;9.190;2023-03-13T01:44:02;7.80;1.00
11511;DHT22;5812;48.864;9.190;2023-03-13T01:46:29;7.80;1.00
11511;DHT22;5812;48.864;9.190;2023-03-13T01:49:08;7.80;1.00
11511;DHT22;5812;48.864;9.190;2023-03-13T01:51:49;7.90;1.00
11511;DHT22;5812;48.864;9.190;2023-03-13T01:59:41;8.00;1.00
11511;DHT22;5812;48.864;9.190;2023-03-13T02:02:08;8.00;1.00
11511;DHT22;5812;48.864;9.190;2023-03-13T02:04:36;8.00;1.00
11511;DHT22;5812;48.864;9.190;2023-03-13T02:07:08;7.90;1.00
11511;DHT22;5812;48.864;9.190;2023-03-13T02:09:36;7.90;1.00
11511;DHT22;5812;48.864;9.190;2023-03-13T02:12:14;7.90;1.00
11511;DHT22;5812;48.864;9.190;2023-03-13T02:14:44;7.80;1.00
11511;DHT22;5812;48.864;9.190;2023-03-13T02:17:12;7.80;1.00
11511;DHT22;5812;48.864;9.190;2023-03-13T02:19:43;7.80;1.00
11511;DHT22;5812;48.864;9.190;2023-03-13T02:22:23;7.90;1.00
11511;DHT22;5812;48.864;9.190;2023-03-13T02:27:37;7.80;1.00
11511;DHT22;5812;48.864;9.190;2023-03-13T02:30:05;7.90;1.00
11511;DHT22;5812;48.864;9.190;2023-03-13T02:32:31;7.90;1.00
11511;DHT22;5812;48.864;9.190;2023-03-13T02:35:01;7.90;1.00
11511;DHT22;5812;48.864;9.190;2023-03-13T02:37:29;7.90;1.00
11511;DHT22;5812;48.864;9.190;2023-03-13T02:39:57;7.90;1.00
11511;DHT22;5812;48.864;9.190;2023-03-13T02:42:24;8.00;1.00
11511;DHT22;5812;48.864;9.190;2023-03-13T02:44:50;8.00;1.00
11511;DHT22;5812;48.864;9.190;2023-03-13T02:47:18;8.00;1.00
11511;DHT22;5812;48.864;9.190;2023-03-13T02:49:44;8.20;1.00
11511;DHT22;5812;48.864;9.190;2023-03-13T02:54:42;8.30;1.00
11511;DHT22;5812;48.864;9.190;2023-03-13T02:57:09;8.40;1.00
11511;DHT22;5812;48.864;9.190;2023-03-13T02:59:34;8.40;1.00
11511;DHT22;5812;48.864;9.190;2023-03-13T03:02:00;8.50;1.00
11511;DHT22;5812;48.864;9.190;2023-03-13T03:04:26;8.60;1.00
11511;DHT22;5812;48.864;9.190;2023-03-13T03:06:52;8.70;1.00
11511;DHT22;5812;48.864;9.190;2023-03-13T03:09:19;8.50;1.00
11511;DHT22;5812;48.864;9.190;2023-03-13T03:11:45;8.50;1.00
11511;DHT22;5812;48.864;9.190;2023-03-13T03:14:11;8.60;1.00
11511;DHT22;5812;48.864;9.190;2023-03-13T03:16:37;8.60;1.00
11511;DHT22;5812;48.864;9.190;2023-03-13T03:19:03;8.80;1.00
11511;DHT22;5812;48.864;9.190;2023-03-13T03:21:31;8.90;1.00
11511;DHT22;5812;48.864;9.190;2023-03-13T03:23:56;8.80;1.00
11511;DHT22;5812;48.864;9.190;2023-03-13T03:26:22;8.80;1.00
11511;DHT22;5812;48.864;9.190;2023-03-13T03:28:48;8.80;1.00
11511;DHT22;5812;48.864;9.190;2023-03-13T03:31:14;8.80;1.00
11511;DHT22;5812;48.864;9.190;2023-03-13T03:33:40;8.60;1.00
11511;DHT22;5812;48.864;9.190;2023-03-13T03:36:12;8.40;1.00
11511;DHT22;5812;48.864;9.190;2023-03-13T03:38:38;8.30;1.00
11511;DHT22;5812;48.864;9.190;2023-03-13T03:41:05;8.30;1.00
11511;DHT22;5812;48.864;9.190;2023-03-13T03:43:31;8.40;1.00
11511;DHT22;5812;48.864;9.190;2023-03-13T03:45:57;8.20;1.00
11511;DHT22;5812;48.864;9.190;2023-03-13T03:48:22;8.20;1.00
11511;DHT22;5812;48.864;9.190;2023-03-13T03:50:48;8.30;1.00
11511;DHT22;5812;48.864;9.190;2023-03-13T03:53:14;8.40;1.00
11511;DHT22;5812;48.864;9.190;2023-03-13T03:55:39;8.60;1.00
11511;DHT22;5812;48.864;9.190;2023-03-13T03:58:05;8.60;1.00
11511;DHT22;5812;48.864;9.190;2023-03-13T04:00:31;8.60;1.00
11511;DHT22;5812;48.864;9.190;2023-03-13T04:02:56;8.90;1.00
11511;DHT22;5812;48.864;9.190;2023-03-13T04:05:23;8.90;1.00
11511;DHT22;5812;48.864;9.190;2023-03-13T04:07:49;9.10;1.00
11511;DHT22;5812;48.864;9.190;2023-03-13T04:10:15;9.30;1.00
11511;DHT22;5812;48.864;9.190;2023-03-13T04:12:41;9.20;1.00
11511;DHT22;5812;48.864;9.190;2023-03-13T04:15:07;9.40;1.00
11511;DHT22;5812;48.864;9.190;2023-03-13T04:17:33;9.50;1.00
11511;DHT22;5812;48.864;9.190;2023-03-13T04:19:59;9.50;1.00
11511;DHT22;5812;48.864;9.190;2023-03-13T04:22:25;9.50;1.00
11511;DHT22;5812;48.864;9.190;2023-03-13T04:24:50;9.50;1.00
11511;DHT22;5812;48.864;9.190;2023-03-13T04:27:16;9.60;1.00
11511;DHT22;5812;48.864;9.190;2023-03-13T04:29:41;9.80;1.00
11511;DHT22;5812;48.864;9.190;2023-03-13T04:32:07;9.90;1.00
11511;DHT22;5812;48.864;9.190;2023-03-13T04:34:33;10.20;1.00
11511;DHT22;5812;48.864;9.190;2023-03-13T04:36:59;10.50;1.00
11511;DHT22;5812;48.864;9.190;2023-03-13T04:39:24;10.80;1.00
11511;DHT22;5812;48.864;9.190;2023-03-13T04:41:54;11.10;1.00
11511;DHT22;5812;48.864;9.190;2023-03-13T04:44:20;11.30;1.00
11511;DHT22;5812;48.864;9.190;2023-03-13T04:46:46;11.40;1.00
11511;DHT22;5812;48.864;9.190;2023-03-13T04:49:12;11.60;1.00
11511;DHT22;5812;48.864;9.190;2023-03-13T04:51:42;11.50;1.00
11511;DHT22;5812;48.864;9.190;2023-03-13T04:54:08;11.60;1.00
11511;DHT22;5812;48.864;9.190;2023-03-13T04:56:33;11.80;1.00
11511;DHT22;5812;48.864;9.190;2023-03-13T04:58:59;11.80;1.00
11511;DHT22;5812;48.864;9.190;2023-03-13T05:01:25;11.90;1.00
11511;DHT22;5812;48.864;9.190;2023-03-13T05:03:50;11.90;1.00
11511;DHT22;5812;48.864;9.190;2023-03-13T05:06:16;11.80;1.00
11511;DHT22;5812;48.864;9.190;2023-03-13T05:08:41;11.80;1.00
11511;DHT22;5812;48.864;9.190;2023-03-13T05:11:07;11.70;1.00
11511;DHT22;5812;48.864;9.190;2023-03-13T05:13:33;11.80;1.00
11511;DHT22;5812;48.864;9.190;2023-03-13T05:15:58;11.90;1.00
11511;DHT22;5812;48.864;9.190;2023-03-13T05:18:24;11.90;1.00
11511;DHT22;5812;48.864;9.190;2023-03-13T05:20:50;11.80;1.00
11511;DHT22;5812;48.864;9.190;2023-03-13T05:23:15;11.80;1.00
11511;DHT22;5812;48.864;9.190;2023-03-13T05:25:41;11.90;1.00
11511;DHT22;5812;48.864;9.190;2023-03-13T05:28:06;11.80;1.00
11511;DHT22;5812;48.864;9.190;2023-03-13T05:30:32;11.90;1.00
11511;DHT22;5812;48.864;9.190;2023-03-13T05:32:58;12.00;1.00
11511;DHT22;5812;48.864;9.190;2023-03-13T05:35:23;11.90;1.00
11511;DHT22;5812;48.864;9.190;2023-03-13T05:37:49;11.90;1.00
11511;DHT22;5812;48.864;9.190;2023-03-13T05:40:15;11.90;1.00
11511;DHT22;5812;48.864;9.190;2023-03-13T05:42:41;11.90;1.00
11511;DHT22;5812;48.864;9.190;2023-03-13T05:45:07;11.90;1.00
11511;DHT22;5812;48.864;9.190;2023-03-13T05:47:36;11.90;1.00
11511;DHT22;5812;48.864;9.190;2023-03-13T05:50:04;12.00;1.00
11511;DHT22;5812;48.864;9.190;2023-03-13T05:52:30;11.90;1.00
11511;DHT22;5812;48.864;9.190;2023-03-13T05:54:55;12.00;1.00
11511;DHT22;5812;48.864;9.190;2023-03-13T05:57:21;12.00;1.00
11511;DHT22;5812;48.864;9.190;2023-03-13T05:59:47;12.10;1.00
11511;DHT22;5812;48.864;9.190;2023-03-13T06:02:13;12.10;1.00
11511;DHT22;5812;48.864;9.190;2023-03-13T06:04:38;12.10;1.00
11511;DHT22;5812;48.864;9.190;2023-03-13T06:07:04;12.10;1.00
11511;DHT22;5812;48.864;9.190;2023-03-13T06:09:30;12.20;1.00
11511;DHT22;5812;48.864;9.190;2023-03-13T06:11:55;12.10;1.00
11511;DHT22;5812;48.864;9.190;2023-03-13T06:14:21;12.20;1.00
11511;DHT22;5812;48.864;9.190;2023-03-13T06:16:47;12.20;1.00
11511;DHT22;5812;48.864;9.190;2023-03-13T06:19:12;12.30;1.00
11511;DHT22;5812;48.864;9.190;2023-03-13T06:21:38;12.20;1.00
11511;DHT22;5812;48.864;9.190;2023-03-13T06:24:04;12.20;1.00
11511;DHT22;5812;48.864;9.190;2023-03-13T06:26:29;12.30;1.00
11511;DHT22;5812;48.864;9.190;2023-03-13T06:28:55;12.40;1.00
11511;DHT22;5812;48.864;9.190;2023-03-13T06:31:21;12.40;1.00
11511;DHT22;5812;48.864;9.190;2023-03-13T06:33:46;12.50;1.00
11511;DHT22;5812;48.864;9.190;2023-03-13T06:36:12;12.60;1.00
11511;DHT22;5812;48.864;9.190;2023-03-13T06:38:38;12.50;1.00
11511;DHT22;5812;48.864;9.190;2023-03-13T06:41:04;12.70;1.00
11511;DHT22;5812;48.864;9.190;2023-03-13T06:43:30;12.70;1.00
11511;DHT22;5812;48.864;9.190;2023-03-13T06:45:55;12.70;1.00
11511;DHT22;5812;48.864;9.190;2023-03-13T06:48:21;12.50;1.00
11511;DHT22;5812;48.864;9.190;2023-03-13T06:50:48;12.60;1.00
11511;DHT22;5812;48.864;9.190;2023-03-13T06:53:18;12.60;1.00
11511;DHT22;5812;48.864;9.190;2023-03-13T06:55:45;12.60;1.00
11511;DHT22;5812;48.864;9.190;2023-03-13T06:58:11;12.60;1.00
11511;DHT22;5812;48.864;9.190;2023-03-13T07:00:37;12.60;1.00
11511;DHT22;5812;48.864;9.190;2023-03-13T07:03:05;12.70;1.00
11511;DHT22;5812;48.864;9.190;2023-03-13T07:05:30;12.60;1.00
11511;DHT22;5812;48.864;9.190;2023-03-13T07:07:56;12.70;1.00
11511;DHT22;5812;48.864;9.190;2023-03-13T07:10:22;12.70;1.00
11511;DHT22;5812;48.864;9.190;2023-03-13T07:12:48;12.60;1.00
11511;DHT22;5812;48.864;9.190;2023-03-13T07:15:13;12.70;1.00
11511;DHT22;5812;48.864;9.190;2023-03-13T07:17:39;12.70;1.00
11511;DHT22;5812;48.864;9.190;2023-03-13T07:20:05;12.70;1.00
11511;DHT22;5812;48.864;9.190;2023-03-13T07:22:33;12.70;1.00
11511;DHT22;5812;48.864;9.190;2023-03-13T07:24:59;12.70;1.00
11511;DHT22;5812;48.864;9.190;2023-03-13T07:27:25;12.70;1.00
11511;DHT22;5812;48.864;9.190;2023-03-13T07:29:50;12.70;1.00
11511;DHT22;5812;48.864;9.190;2023-03-13T07:32:16;12.70;1.00
11511;DHT22;5812;48.864;9.190;2023-03-13T07:34:41;12.70;1.00
11511;DHT22;5812;48.864;9.190;2023-03-13T07:37:10;12.70;1.00
11511;DHT22;5812;48.864;9.190;2023-03-13T07:39:36;12.80;1.00
11511;DHT22;5812;48.864;9.190;2023-03-13T07:42:01;12.80;1.00
11511;DHT22;5812;48.864;9.190;2023-03-13T07:44:27;12.80;1.00
11511;DHT22;5812;48.864;9.190;2023-03-13T07:46:53;12.80;1.00
11511;DHT22;5812;48.864;9.190;2023-03-13T07:49:18;12.90;1.00
11511;DHT22;5812;48.864;9.190;2023-03-13T07:51:44;12.90;1.00
11511;DHT22;5812;48.864;9.190;2023-03-13T07:54:12;12.90;1.00
11511;DHT22;5812;48.864;9.190;2023-03-13T07:56:38;12.90;1.00
11511;DHT22;5812;48.864;9.190;2023-03-13T07:59:04;13.00;1.00
11511;DHT22;5812;48.864;9.190;2023-03-13T08:01:29;13.10;1.00
11511;DHT22;5812;48.864;9.190;2023-03-13T08:03:55;13.10;1.00
11511;DHT22;5812;48.864;9.190;2023-03-13T08:06:23;13.20;1.00
11511;DHT22;5812;48.864;9.190;2023-03-13T08:08:49;13.30;1.00
11511;DHT22;5812;48.864;9.190;2023-03-13T08:11:17;13.30;1.00
11511;DHT22;5812;48.864;9.190;2023-03-13T08:13:43;13.50;1.00
11511;DHT22;5812;48.864;9.190;2023-03-13T08:16:20;13.60;1.00
11511;DHT22;5812;48.864;9.190;2023-03-13T08:18:48;13.60;1.00
11511;DHT22;5812;48.864;9.190;2023-03-13T08:21:17;13.70;1.00
11511;DHT22;5812;48.864;9.190;2023-03-13T08:23:43;13.90;1.00
11511;DHT22;5812;48.864;9.190;2023-03-13T08:26:10;13.80;1.00
11511;DHT22;5812;48.864;9.190;2023-03-13T08:28:37;13.90;1.00
11511;DHT22;5812;48.864;9.190;2023-03-13T08:31:23;14.00;1.00
11511;DHT22;5812;48.864;9.190;2023-03-13T08:33:49;14.00;1.00
11511;DHT22;5812;48.864;9.190;2023-03-13T08:36:17;14.20;99.90
11511;DHT22;5812;48.864;9.190;2023-03-13T08:38:43;14.20;99.90
11511;DHT22;5812;48.864;9.190;2023-03-13T08:41:11;14.20;99.90
11511;DHT22;5812;48.864;9.190;2023-03-13T08:43:36;14.30;99.90
11511;DHT22;5812;48.864;9.190;2023-03-13T08:46:02;14.30;99.90
11511;DHT22;5812;48.864;9.190;2023-03-13T08:48:28;14.40;99.90
11511;DHT22;5812;48.864;9.190;2023-03-13T08:51:06;14.40;99.90
11511;DHT22;5812;48.864;9.190;2023-03-13T08:53:34;14.40;99.90
11511;DHT22;5812;48.864;9.190;2023-03-13T08:56:00;14.50;99.90
11511;DHT22;5812;48.864;9.190;2023-03-13T08:58:26;14.50;99.90
11511;DHT22;5812;48.864;9.190;2023-03-13T09:00:53;14.50;99.90
11511;DHT22;5812;48.864;9.190;2023-03-13T09:03:18;14.60;99.90
11511;DHT22;5812;48.864;9.190;2023-03-13T09:05:44;14.50;99.90
11511;DHT22;5812;48.864;9.190;2023-03-13T09:08:12;14.70;99.90
11511;DHT22;5812;48.864;9.190;2023-03-13T09:10:38;14.80;99.90
11511;DHT22;5812;48.864;9.190;2023-03-13T09:13:03;14.70;99.90
11511;DHT22;5812;48.864;9.190;2023-03-13T09:15:29;14.70;99.90
11511;DHT22;5812;48.864;9.190;2023-03-13T09:17:55;14.70;99.90
11511;DHT22;5812;48.864;9.190;2023-03-13T09:20:20;14.70;99.90
11511;DHT22;5812;48.864;9.190;2023-03-13T09:22:46;14.80;99.90
11511;DHT22;5812;48.864;9.190;2023-03-13T09:25:12;14.90;99.90
11511;DHT22;5812;48.864;9.190;2023-03-13T09:27:38;15.00;99.90
11511;DHT22;5812;48.864;9.190;2023-03-13T09:30:04;15.00;99.90
11511;DHT22;5812;48.864;9.190;2023-03-13T09:32:30;15.60;99.90
11511;DHT22;5812;48.864;9.190;2023-03-13T09:34:56;15.70;99.90
11511;DHT22;5812;48.864;9.190;2023-03-13T09:37:22;15.50;99.90
11511;DHT22;5812;48.864;9.190;2023-03-13T09:39:48;15.30;99.90
11511;DHT22;5812;48.864;9.190;2023-03-13T09:42:27;15.40;99.90
11511;DHT22;5812;48.864;9.190;2023-03-13T09:45:01;15.20;99.90
11511;DHT22;5812;48.864;9.190;2023-03-13T09:47:36;15.20;99.90
11511;DHT22;5812;48.864;9.190;2023-03-13T09:50:24;15.20;99.90
11511;DHT22;5812;48.864;9.190;2023-03-13T09:52:58;15.60;99.90
11511;DHT22;5812;48.864;9.190;2023-03-13T09:55:30;16.40;99.90
11511;DHT22;5812;48.864;9.190;2023-03-13T09:58:18;16.80;99.90
11511;DHT22;5812;48.864;9.190;2023-03-13T10:01:00;17.40;99.90
11511;DHT22;5812;48.864;9.190;2023-03-13T10:03:30;17.10;99.90
11511;DHT22;5812;48.864;9.190;2023-03-13T10:06:03;16.70;99.90
11511;DHT22;5812;48.864;9.190;2023-03-13T10:08:35;16.60;99.90
11511;DHT22;5812;48.864;9.190;2023-03-13T10:11:10;16.50;99.90
11511;DHT22;5812;48.864;9.190;2023-03-13T10:16:37;16.50;99.90
11511;DHT22;5812;48.864;9.190;2023-03-13T10:19:15;16.20;99.90
11511;DHT22;5812;48.864;9.190;2023-03-13T10:21:42;16.30;99.90
11511;DHT22;5812;48.864;9.190;2023-03-13T10:24:30;17.20;99.90
11511;DHT22;5812;48.864;9.190;2023-03-13T10:26:56;17.50;99.90
11511;DHT22;5812;48.864;9.190;2023-03-13T10:29:27;17.40;99.90
11511;DHT22;5812;48.864;9.190;2023-03-13T10:31:57;17.50;99.90
11511;DHT22;5812;48.864;9.190;2023-03-13T10:35:09;17.70;99.90
11511;DHT22;5812;48.864;9.190;2023-03-13T10:37:14;17.60;99.90
11511;DHT22;5812;48.864;9.190;2023-03-13T10:39:40;17.60;99.90
11511;DHT22;5812;48.864;9.190;2023-03-13T10:42:31;17.80;99.90
11511;DHT22;5812;48.864;9.190;2023-03-13T10:44:58;17.80;99.90
11511;DHT22;5812;48.864;9.190;2023-03-13T10:47:25;17.50;99.90
11511;DHT22;5812;48.864;9.190;2023-03-13T10:49:54;17.10;99.90
11511;DHT22;5812;48.864;9.190;2023-03-13T10:52:47;17.00;99.90
11511;DHT22;5812;48.864;9.190;2023-03-13T10:55:17;17.00;99.90
11511;DHT22;5812;48.864;9.190;2023-03-13T10:58:02;17.10;99.90
11511;DHT22;5812;48.864;9.190;2023-03-13T11:00:40;17.80;99.90
11511;DHT22;5812;48.864;9.190;2023-03-13T11:05:57;19.30;99.90
11511;DHT22;5812;48.864;9.190;2023-03-13T11:08:24;19.00;99.90
11511;DHT22;5812;48.864;9.190;2023-03-13T11:11:00;19.30;99.90
11511;DHT22;5812;48.864;9.190;2023-03-13T11:13:44;18.90;99.90
11511;DHT22;5812;48.864;9.190;2023-03-13T11:16:26;18.50;99.90
11511;DHT22;5812;48.864;9.190;2023-03-13T11:19:19;17.80;99.90
11511;DHT22;5812;48.864;9.190;2023-03-13T11:24:43;17.90;99.90
11511;DHT22;5812;48.864;9.190;2023-03-13T11:32:59;19.10;99.90
11511;DHT22;5812;48.864;9.190;2023-03-13T11:35:48;18.80;99.90
11511;DHT22;5812;48.864;9.190;2023-03-13T11:43:31;18.60;99.90
11511;DHT22;5812;48.864;9.190;2023-03-13T11:46:22;18.20;99.90
11511;DHT22;5812;48.864;9.190;2023-03-13T11:48:57;18.20;99.90
11511;DHT22;5812;48.864;9.190;2023-03-13T11:51:49;19.70;99.90
11511;DHT22;5812;48.864;9.190;2023-03-13T11:54:33;19.70;99.90
11511;DHT22;5812;48.864;9.190;2023-03-13T11:57:24;21.40;99.90
11511;DHT22;5812;48.864;9.190;2023-03-13T12:00:14;22.90;99.90
11511;DHT22;5812;48.864;9.190;2023-03-13T12:02:53;22.50;99.90
11511;DHT22;5812;48.864;9.190;2023-03-13T12:05:19;23.00;99.90
11511;DHT22;5812;48.864;9.190;2023-03-13T12:08:02;23.70;99.90
11511;DHT22;5812;48.864;9.190;2023-03-13T12:10:34;21.90;99.90
11511;DHT22;5812;48.864;9.190;2023-03-13T12:13:02;20.60;99.90
11511;DHT22;5812;48.864;9.190;2023-03-13T12:15:42;23.00;99.90
11511;DHT22;5812;48.864;9.190;2023-03-13T12:18:32;23.00;99.90
11511;DHT22;5812;48.864;9.190;2023-03-13T12:21:03;23.10;99.90
11511;DHT22;5812;48.864;9.190;2023-03-13T12:26:18;23.20;99.90
11511;DHT22;5812;48.864;9.190;2023-03-13T12:28:56;23.60;99.90
11511;DHT22;5812;48.864;9.190;2023-03-13T12:31:33;22.80;99.90
11511;DHT22;5812;48.864;9.190;2023-03-13T12:39:42;23.20;99.90
11511;DHT22;5812;48.864;9.190;2023-03-13T12:45:01;23.90;99.90
11511;DHT22;5812;48.864;9.190;2023-03-13T12:58:52;24.40;99.90
11511;DHT22;5812;48.864;9.190;2023-03-13T13:04:13;25.10;99.90
11511;DHT22;5812;48.864;9.190;2023-03-13T13:07:03;24.90;99.90
11511;DHT22;5812;48.864;9.190;2023-03-13T13:09:37;24.00;99.90
11511;DHT22;5812;48.864;9.190;2023-03-13T13:20:38;23.70;99.90
11511;DHT22;5812;48.864;9.190;2023-03-13T13:25:47;23.80;99.90
11511;DHT22;5812;48.864;9.190;2023-03-13T13:30:52;22.60;99.90
11511;DHT22;5812;48.864;9.190;2023-03-13T13:36:24;21.80;99.90
11511;DHT22;5812;48.864;9.190;2023-03-13T13:38:51;22.00;99.90
11511;DHT22;5812;48.864;9.190;2023-03-13T13:43:47;21.60;99.90
11511;DHT22;5812;48.864;9.190;2023-03-13T13:46:22;22.40;99.90
11511;DHT22;5812;48.864;9.190;2023-03-13T13:51:34;22.80;99.90
11511;DHT22;5812;48.864;9.190;2023-03-13T13:54:52;22.20;99.90
11511;DHT22;5812;48.864;9.190;2023-03-13T13:56:51;22.40;99.90
11511;DHT22;5812;48.864;9.190;2023-03-13T14:01:47;21.90;99.90
11511;DHT22;5812;48.864;9.190;2023-03-13T14:04:15;21.70;99.90
11511;DHT22;5812;48.864;9.190;2023-03-13T14:06:44;21.50;99.90
11511;DHT22;5812;48.864;9.190;2023-03-13T14:11:56;21.80;99.90
11511;DHT22;5812;48.864;9.190;2023-03-13T14:14:22;21.80;99.90
11511;DHT22;5812;48.864;9.190;2023-03-13T14:16:53;22.10;99.90
11511;DHT22;5812;48.864;9.190;2023-03-13T14:19:37;22.00;99.90
11511;DHT22;5812;48.864;9.190;2023-03-13T14:22:06;21.90;99.90
11511;DHT22;5812;48.864;9.190;2023-03-13T14:24:33;21.90;99.90
11511;DHT22;5812;48.864;9.190;2023-03-13T14:26:59;22.30;99.90
11511;DHT22;5812;48.864;9.190;2023-03-13T14:29:25;22.70;99.90
11511;DHT22;5812;48.864;9.190;2023-03-13T14:31:56;22.60;99.90
11511;DHT22;5812;48.864;9.190;2023-03-13T14:34:23;21.80;99.90
11511;DHT22;5812;48.864;9.190;2023-03-13T14:36:55;21.80;99.90
11511;DHT22;5812;48.864;9.190;2023-03-13T14:39:36;22.10;99.90
11511;DHT22;5812;48.864;9.190;2023-03-13T14:42:13;22.10;99.90
11511;DHT22;5812;48.864;9.190;2023-03-13T14:44:40;22.00;99.90
11511;DHT22;5812;48.864;9.190;2023-03-13T14:47:29;22.40;99.90
11511;DHT22;5812;48.864;9.190;2023-03-13T14:50:12;22.70;99.90
11511;DHT22;5812;48.864;9.190;2023-03-13T14:52:45;22.30;99.90
11511;DHT22;5812;48.864;9.190;2023-03-13T14:58:00;22.10;99.90
11511;DHT22;5812;48.864;9.190;2023-03-13T15:00:39;21.90;99.90
11511;DHT22;5812;48.864;9.190;2023-03-13T15:08:46;22.60;99.90
11511;DHT22;5812;48.864;9.190;2023-03-13T15:13:49;22.30;99.90
11511;DHT22;5812;48.864;9.190;2023-03-13T15:16:17;22.10;99.90
11511;DHT22;5812;48.864;9.190;2023-03-13T15:18:44;21.90;99.90
11511;DHT22;5812;48.864;9.190;2023-03-13T15:23:40;22.20;99.90
11511;DHT22;5812;48.864;9.190;2023-03-13T15:26:06;22.00;99.90
11511;DHT22;5812;48.864;9.190;2023-03-13T15:28:32;22.00;99.90
11511;DHT22;5812;48.864;9.190;2023-03-13T15:30:59;22.10;99.90
11511;DHT22;5812;48.864;9.190;2023-03-13T15:33:27;22.50;99.90
11511;DHT22;5812;48.864;9.190;2023-03-13T15:35:53;23.10;99.90
11511;DHT22;5812;48.864;9.190;2023-03-13T15:38:21;22.80;99.90
11511;DHT22;5812;48.864;9.190;2023-03-13T15:40:48;21.90;99.90
11511;DHT22;5812;48.864;9.190;2023-03-13T15:43:14;21.90;99.90
11511;DHT22;5812;48.864;9.190;2023-03-13T15:45:42;21.90;99.90
11511;DHT22;5812;48.864;9.190;2023-03-13T15:48:15;22.10;99.90
11511;DHT22;5812;48.864;9.190;2023-03-13T15:50:42;22.50;99.90
11511;DHT22;5812;48.864;9.190;2023-03-13T15:53:21;22.40;99.90
11511;DHT22;5812;48.864;9.190;2023-03-13T15:55:49;21.90;99.90
11511;DHT22;5812;48.864;9.190;2023-03-13T15:58:16;21.50;99.90
11511;DHT22;5812;48.864;9.190;2023-03-13T16:00:42;21.40;99.90
11511;DHT22;5812;48.864;9.190;2023-03-13T16:03:18;21.40;99.90
11511;DHT22;5812;48.864;9.190;2023-03-13T16:05:44;21.40;99.90
11511;DHT22;5812;48.864;9.190;2023-03-13T16:08:19;21.50;99.90
11511;DHT22;5812;48.864;9.190;2023-03-13T16:10:45;21.50;99.90
11511;DHT22;5812;48.864;9.190;2023-03-13T16:13:11;21.30;99.90
11511;DHT22;5812;48.864;9.190;2023-03-13T16:15:37;21.30;99.90
11511;DHT22;5812;48.864;9.190;2023-03-13T16:18:04;21.20;99.90
11511;DHT22;5812;48.864;9.190;2023-03-13T16:20:31;21.10;99.90
11511;DHT22;5812;48.864;9.190;2023-03-13T16:22:57;21.10;99.90
11511;DHT22;5812;48.864;9.190;2023-03-13T16:25:24;20.90;99.90
11511;DHT22;5812;48.864;9.190;2023-03-13T16:27:50;20.80;99.90
11511;DHT22;5812;48.864;9.190;2023-03-13T16:30:30;20.60;99.90
11511;DHT22;5812;48.864;9.190;2023-03-13T16:32:56;20.50;99.90
11511;DHT22;5812;48.864;9.190;2023-03-13T16:35:23;20.30;99.90
11511;DHT22;5812;48.864;9.190;2023-03-13T16:37:55;20.40;99.90
11511;DHT22;5812;48.864;9.190;2023-03-13T16:40:24;20.30;99.90
11511;DHT22;5812;48.864;9.190;2023-03-13T16:42:50;20.10;99.90
11511;DHT22;5812;48.864;9.190;2023-03-13T16:45:16;20.20;99.90
11511;DHT22;5812;48.864;9.190;2023-03-13T16:47:43;20.10;99.90
11511;DHT22;5812;48.864;9.190;2023-03-13T16:52:39;19.80;99.90
11511;DHT22;5812;48.864;9.190;2023-03-13T16:55:05;19.90;99.90
11511;DHT22;5812;48.864;9.190;2023-03-13T16:57:31;19.70;99.90
11511;DHT22;5812;48.864;9.190;2023-03-13T16:59:57;19.60;99.90
11511;DHT22;5812;48.864;9.190;2023-03-13T17:02:22;19.60;99.90
11511;DHT22;5812;48.864;9.190;2023-03-13T17:04:48;19.60;99.90
11511;DHT22;5812;48.864;9.190;2023-03-13T17:07:22;19.60;99.90
11511;DHT22;5812;48.864;9.190;2023-03-13T17:09:49;19.40;99.90
11511;DHT22;5812;48.864;9.190;2023-03-13T17:12:15;19.20;99.90
11511;DHT22;5812;48.864;9.190;2023-03-13T17:14:41;19.30;99.90
11511;DHT22;5812;48.864;9.190;2023-03-13T17:17:13;19.20;99.90
11511;DHT22;5812;48.864;9.190;2023-03-13T17:19:40;19.10;99.90
11511;DHT22;5812;48.864;9.190;2023-03-13T17:22:06;19.00;99.90
11511;DHT22;5812;48.864;9.190;2023-03-13T17:24:32;19.10;99.90
11511;DHT22;5812;48.864;9.190;2023-03-13T17:26:57;18.90;99.90
11511;DHT22;5812;48.864;9.190;2023-03-13T17:29:23;18.70;99.90
11511;DHT22;5812;48.864;9.190;2023-03-13T17:31:49;18.60;99.90
11511;DHT22;5812;48.864;9.190;2023-03-13T17:34:14;18.60;99.90
11511;DHT22;5812;48.864;9.190;2023-03-13T17:36:41;18.60;99.90
11511;DHT22;5812;48.864;9.190;2023-03-13T17:39:12;18.60;99.90
11511;DHT22;5812;48.864;9.190;2023-03-13T17:41:38;18.60;99.90
11511;DHT22;5812;48.864;9.190;2023-03-13T17:44:04;18.30;99.90
11511;DHT22;5812;48.864;9.190;2023-03-13T17:46:42;18.30;99.90
11511;DHT22;5812;48.864;9.190;2023-03-13T17:49:13;18.30;99.90